createdAt,value
2023-05-09T00:00:03.665Z,94.52
2023-05-09T00:02:30.306Z,94.11
2023-05-09T00:04:56.886Z,93.87
2023-05-09T00:07:23.313Z,93.85
2023-05-09T00:09:49.717Z,94.02
2023-05-09T00:12:16.155Z,93.58
2023-05-09T00:14:45.312Z,92.23
2023-05-09T00:17:14.515Z,92.96
2023-05-09T00:19:41.810Z,92.78
2023-05-09T00:22:09.202Z,93.33
2023-05-09T00:24:35.740Z,92.95
2023-05-09T00:27:02.119Z,93.71
2023-05-09T00:29:28.544Z,91.69
2023-05-09T00:31:55.039Z,91.54
2023-05-09T00:34:21.835Z,91.57
2023-05-09T00:36:48.280Z,90.99
2023-05-09T00:39:14.713Z,92.68
2023-05-09T00:41:41.168Z,92.95
2023-05-09T00:44:07.688Z,93.85
2023-05-09T00:46:34.328Z,94.31
2023-05-09T00:49:00.800Z,95.57
2023-05-09T00:51:28.490Z,95.66
2023-05-09T00:53:55.013Z,95.76
2023-05-09T00:56:22.017Z,95.44
2023-05-09T00:58:48.791Z,95.41
2023-05-09T01:01:16.392Z,95.76
2023-05-09T01:03:43.700Z,96.16
2023-05-09T01:06:39.648Z,95.72
2023-05-09T01:09:14.775Z,95.40
2023-05-09T01:11:52.507Z,93.97
2023-05-09T01:14:37.008Z,94.82
2023-05-09T01:17:16.245Z,94.20
2023-05-09T01:20:05.796Z,93.07
2023-05-09T01:22:37.182Z,92.68
2023-05-09T01:25:31.111Z,93.87
2023-05-09T01:28:14.987Z,93.67
2023-05-09T01:30:46.756Z,93.97
2023-05-09T01:33:17.989Z,94.01
2023-05-09T01:35:49.687Z,94.19
2023-05-09T01:38:19.758Z,93.59
2023-05-09T01:40:51.820Z,94.27
2023-05-09T01:43:19.977Z,94.48
2023-05-09T01:45:48.106Z,94.79
2023-05-09T01:48:15.634Z,94.49
2023-05-09T01:50:44.181Z,94.00
2023-05-09T01:53:11.668Z,93.47
2023-05-09T01:55:41.007Z,93.88
2023-05-09T01:58:08.189Z,92.72
2023-05-09T02:00:35.068Z,93.24
2023-05-09T02:03:03.970Z,92.96
2023-05-09T02:05:32.031Z,92.92
2023-05-09T02:07:59.556Z,93.01
2023-05-09T02:10:29.227Z,93.29
2023-05-09T02:12:56.637Z,92.94
2023-05-09T02:15:24.454Z,93.20
2023-05-09T02:17:50.948Z,93.24
2023-05-09T02:20:17.665Z,93.53
2023-05-09T02:22:44.959Z,93.52
2023-05-09T02:25:16.075Z,93.33
2023-05-09T02:27:45.490Z,93.77
2023-05-09T02:30:18.654Z,93.44
2023-05-09T02:32:48.931Z,93.87
2023-05-09T02:35:17.326Z,93.14
2023-05-09T02:37:45.773Z,93.44
2023-05-09T02:40:13.370Z,93.05
2023-05-09T02:42:39.951Z,92.68
2023-05-09T02:45:07.710Z,92.78
2023-05-09T02:47:34.176Z,93.04
2023-05-09T02:50:00.622Z,92.15
2023-05-09T02:52:27.128Z,92.25
2023-05-09T02:54:53.562Z,92.10
2023-05-09T02:57:19.988Z,91.85
2023-05-09T02:59:46.474Z,91.27
2023-05-09T03:02:12.876Z,91.78
2023-05-09T03:04:39.341Z,92.18
2023-05-09T03:07:05.794Z,92.59
2023-05-09T03:09:32.253Z,93.40
2023-05-09T03:11:58.631Z,93.55
2023-05-09T03:14:25.035Z,92.07
2023-05-09T03:16:51.511Z,93.10
2023-05-09T03:19:17.922Z,92.15
2023-05-09T03:21:44.316Z,92.14
2023-05-09T03:24:10.876Z,92.72
2023-05-09T03:26:37.389Z,92.59
2023-05-09T03:29:04.442Z,93.03
2023-05-09T03:31:30.891Z,93.16
2023-05-09T03:33:57.684Z,92.60
2023-05-09T03:36:24.401Z,92.06
2023-05-09T03:38:50.805Z,91.86
2023-05-09T03:41:17.926Z,91.83
2023-05-09T03:43:44.823Z,91.63
2023-05-09T03:46:11.241Z,91.40
2023-05-09T03:48:37.625Z,91.76
2023-05-09T03:51:04.058Z,92.07
2023-05-09T03:53:30.477Z,93.07
2023-05-09T03:55:56.892Z,92.64
2023-05-09T03:58:23.295Z,93.00
2023-05-09T04:00:49.868Z,92.76
2023-05-09T04:03:16.444Z,93.16
2023-05-09T04:05:42.967Z,93.05
2023-05-09T04:08:09.420Z,92.94
2023-05-09T04:10:35.838Z,92.51
2023-05-09T04:13:02.265Z,93.08
2023-05-09T04:15:28.739Z,93.07
2023-05-09T04:17:55.217Z,92.99
2023-05-09T04:20:21.692Z,92.83
2023-05-09T04:22:48.122Z,93.38
2023-05-09T04:25:15.985Z,93.48
2023-05-09T04:27:42.693Z,93.30
2023-05-09T04:30:10.361Z,93.23
2023-05-09T04:32:36.840Z,93.19
2023-05-09T04:35:04.041Z,93.90
2023-05-09T04:37:32.582Z,93.61
2023-05-09T04:39:59.040Z,93.31
2023-05-09T04:42:25.674Z,93.11
2023-05-09T04:44:52.460Z,93.12
2023-05-09T04:47:18.874Z,92.89
2023-05-09T04:49:45.324Z,93.18
2023-05-09T04:52:11.765Z,92.64
2023-05-09T04:54:38.156Z,92.89
2023-05-09T04:57:14.198Z,92.91
2023-05-09T04:59:44.125Z,93.15
2023-05-09T05:02:10.717Z,92.94
2023-05-09T05:04:37.168Z,92.80
2023-05-09T05:07:03.629Z,92.81
2023-05-09T05:09:30.011Z,93.64
2023-05-09T05:12:01.800Z,94.24
2023-05-09T05:14:28.998Z,93.62
2023-05-09T05:16:55.486Z,93.28
2023-05-09T05:19:21.937Z,93.47
2023-05-09T05:21:48.353Z,94.07
2023-05-09T05:24:14.765Z,93.36
2023-05-09T05:26:41.245Z,92.75
2023-05-09T05:29:07.704Z,91.09
2023-05-09T05:31:34.243Z,89.32
2023-05-09T05:34:00.688Z,89.26
2023-05-09T05:36:27.099Z,88.34
2023-05-09T05:38:53.541Z,87.41
2023-05-09T05:41:19.986Z,87.75
2023-05-09T05:43:46.437Z,87.72
2023-05-09T05:46:12.931Z,86.22
2023-05-09T05:48:39.475Z,85.19
2023-05-09T05:51:06.449Z,86.03
2023-05-09T05:53:32.932Z,85.42
2023-05-09T05:55:59.639Z,85.49
2023-05-09T05:58:26.506Z,86.79
2023-05-09T06:00:53.084Z,87.32
2023-05-09T06:03:19.742Z,88.21
2023-05-09T06:05:47.435Z,88.59
2023-05-09T06:08:13.933Z,88.58
2023-05-09T06:10:40.428Z,87.97
2023-05-09T06:13:07.218Z,87.87
2023-05-09T06:15:33.702Z,87.80
2023-05-09T06:18:00.353Z,86.69
2023-05-09T06:20:27.189Z,86.08
2023-05-09T06:22:53.748Z,85.99
2023-05-09T06:25:20.197Z,86.08
2023-05-09T06:27:46.646Z,85.54
2023-05-09T06:30:24.494Z,85.96
2023-05-09T06:32:51.720Z,85.70
2023-05-09T06:35:18.338Z,85.86
2023-05-09T06:37:45.984Z,85.69
2023-05-09T06:40:14.272Z,85.37
2023-05-09T06:42:40.819Z,85.35
2023-05-09T06:45:07.729Z,84.95
2023-05-09T06:47:34.405Z,85.11
2023-05-09T06:50:00.845Z,85.96
2023-05-09T06:52:27.371Z,85.55
2023-05-09T06:54:54.188Z,85.35
2023-05-09T06:57:20.900Z,85.03
2023-05-09T06:59:47.422Z,84.73
2023-05-09T07:02:13.901Z,83.53
2023-05-09T07:04:40.410Z,83.88
2023-05-09T07:07:07.424Z,83.74
2023-05-09T07:09:33.809Z,83.87
2023-05-09T07:12:01.575Z,83.52
2023-05-09T07:14:28.218Z,83.07
2023-05-09T07:17:02.222Z,81.77
2023-05-09T07:19:36.703Z,80.62
2023-05-09T07:22:03.137Z,81.42
2023-05-09T07:24:29.593Z,81.64
2023-05-09T07:26:56.000Z,78.32
2023-05-09T07:29:22.424Z,77.87
2023-05-09T07:31:48.849Z,77.93
2023-05-09T07:34:16.832Z,75.88
2023-05-09T07:36:43.510Z,77.54
2023-05-09T07:39:10.618Z,74.84
2023-05-09T07:41:37.039Z,75.96
2023-05-09T07:44:03.420Z,74.60
2023-05-09T07:46:29.900Z,73.11
2023-05-09T07:48:56.373Z,74.63
2023-05-09T07:51:22.890Z,72.03
2023-05-09T07:53:49.358Z,69.69
2023-05-09T07:56:15.760Z,71.59
2023-05-09T07:58:42.167Z,66.98
2023-05-09T08:01:08.535Z,65.28
2023-05-09T08:03:35.087Z,61.69
2023-05-09T08:06:01.610Z,63.26
2023-05-09T08:08:28.339Z,64.03
2023-05-09T08:10:55.676Z,67.23
2023-05-09T08:13:22.454Z,66.23
2023-05-09T08:15:49.345Z,60.92
2023-05-09T08:18:16.015Z,61.57
2023-05-09T08:20:42.467Z,61.60
2023-05-09T08:23:09.156Z,59.84
2023-05-09T08:25:35.646Z,60.53
2023-05-09T08:28:02.061Z,62.21
2023-05-09T08:30:29.500Z,63.69
2023-05-09T08:32:56.441Z,60.77
2023-05-09T08:35:22.930Z,58.80
2023-05-09T08:37:49.442Z,61.04
2023-05-09T08:40:16.973Z,56.20
2023-05-09T08:42:45.787Z,55.23
2023-05-09T08:45:16.603Z,58.84
2023-05-09T08:47:43.622Z,58.01
2023-05-09T08:50:11.593Z,54.33
2023-05-09T08:52:38.589Z,55.88
2023-05-09T08:55:05.504Z,56.77
2023-05-09T08:57:35.239Z,59.43
2023-05-09T09:00:02.004Z,58.06
2023-05-09T09:02:29.498Z,57.40
2023-05-09T09:04:56.387Z,58.87
2023-05-09T09:07:23.902Z,53.32
2023-05-09T09:09:52.070Z,55.16
2023-05-09T09:12:21.015Z,55.94
2023-05-09T09:14:51.535Z,58.50
2023-05-09T09:17:23.639Z,59.15
2023-05-09T09:19:53.411Z,59.85
2023-05-09T09:22:20.799Z,60.54
2023-05-09T09:24:47.463Z,59.22
2023-05-09T09:27:13.966Z,58.15
2023-05-09T09:29:40.366Z,58.06
2023-05-09T09:32:07.894Z,58.44
2023-05-09T09:34:34.363Z,59.13
2023-05-09T09:37:00.887Z,59.00
2023-05-09T09:39:27.288Z,59.19
2023-05-09T09:41:53.800Z,60.24
2023-05-09T09:44:21.732Z,59.21
2023-05-09T09:46:52.705Z,59.73
2023-05-09T09:49:23.106Z,58.40
2023-05-09T09:51:53.642Z,56.97
2023-05-09T09:54:20.394Z,57.51
2023-05-09T09:56:54.880Z,57.77
2023-05-09T09:59:25.042Z,58.04
2023-05-09T10:01:54.461Z,58.55
2023-05-09T10:04:21.228Z,59.98
2023-05-09T10:06:54.005Z,58.37
2023-05-09T10:09:25.460Z,58.46
2023-05-09T10:11:53.153Z,58.38
2023-05-09T10:14:22.112Z,59.13
2023-05-09T10:16:49.689Z,60.34
2023-05-09T10:19:18.921Z,60.60
2023-05-09T10:21:52.766Z,59.10
2023-05-09T10:24:46.945Z,58.67
2023-05-09T10:27:14.916Z,58.73
2023-05-09T10:29:46.323Z,60.19
2023-05-09T10:32:20.690Z,59.61
2023-05-09T10:34:50.038Z,58.40
2023-05-09T10:37:17.214Z,58.95
2023-05-09T10:39:44.272Z,59.52
2023-05-09T10:42:13.428Z,58.18
2023-05-09T10:44:40.061Z,58.17
2023-05-09T10:47:07.302Z,57.83
2023-05-09T10:49:36.334Z,59.20
2023-05-09T10:52:03.719Z,59.26
2023-05-09T10:54:33.451Z,58.57
2023-05-09T10:57:00.854Z,59.08
2023-05-09T10:59:36.308Z,59.20
2023-05-09T11:02:04.238Z,58.05
2023-05-09T11:04:34.790Z,58.44
2023-05-09T11:07:01.327Z,57.67
2023-05-09T11:09:34.549Z,58.13
2023-05-09T11:12:10.883Z,58.00
2023-05-09T11:14:37.215Z,57.34
2023-05-09T11:17:08.377Z,56.33
2023-05-09T11:19:39.202Z,57.35
2023-05-09T11:22:17.469Z,55.59
2023-05-09T11:24:47.866Z,54.34
2023-05-09T11:27:15.797Z,55.50
2023-05-09T11:29:55.395Z,53.35
2023-05-09T11:32:27.190Z,54.24
2023-05-09T11:35:10.102Z,54.30
2023-05-09T11:37:46.184Z,55.27
2023-05-09T11:40:14.284Z,55.44
2023-05-09T11:42:44.291Z,56.21
2023-05-09T11:45:12.431Z,55.70
2023-05-09T11:47:39.527Z,56.71
2023-05-09T11:50:10.705Z,56.70
2023-05-09T11:52:38.291Z,57.49
2023-05-09T11:55:12.233Z,57.01
2023-05-09T11:57:49.058Z,56.25
2023-05-09T12:00:16.371Z,56.36
2023-05-09T12:02:44.020Z,55.97
2023-05-09T12:05:13.144Z,55.83
2023-05-09T12:07:41.165Z,56.36
2023-05-09T12:10:09.028Z,57.07
2023-05-09T12:12:37.128Z,57.72
2023-05-09T12:15:08.275Z,57.30
2023-05-09T12:17:37.555Z,57.43
2023-05-09T12:20:07.152Z,58.09
2023-05-09T12:22:34.175Z,57.76
2023-05-09T12:25:05.504Z,62.73
2023-05-09T12:27:33.069Z,61.77
2023-05-09T12:30:03.876Z,65.09
2023-05-09T12:32:32.792Z,65.97
2023-05-09T12:35:03.305Z,65.71
2023-05-09T12:37:32.543Z,65.98
2023-05-09T12:40:13.059Z,66.07
2023-05-09T12:42:43.121Z,66.48
2023-05-09T12:45:10.610Z,66.42
2023-05-09T12:47:38.984Z,67.44
2023-05-09T12:50:07.008Z,67.81
2023-05-09T12:52:34.928Z,69.14
2023-05-09T12:55:12.635Z,70.81
2023-05-09T12:57:41.063Z,69.80
2023-05-09T13:00:10.097Z,70.73
2023-05-09T13:02:38.623Z,71.28
2023-05-09T13:05:06.965Z,72.84
2023-05-09T13:07:45.164Z,73.12
2023-05-09T13:10:21.892Z,73.63
2023-05-09T13:12:49.269Z,75.52
2023-05-09T13:15:20.157Z,80.54
2023-05-09T13:17:47.961Z,83.18
2023-05-09T13:20:15.148Z,80.31
2023-05-09T13:22:41.986Z,84.27
2023-05-09T13:25:08.778Z,86.90
2023-05-09T13:27:35.744Z,87.21
2023-05-09T13:30:02.192Z,89.10
2023-05-09T13:32:28.664Z,86.58
2023-05-09T13:34:55.142Z,84.07
2023-05-09T13:37:21.729Z,85.33
2023-05-09T13:39:48.661Z,86.39
2023-05-09T13:42:15.918Z,89.80
2023-05-09T13:44:43.233Z,88.65
2023-05-09T13:47:11.100Z,88.42
2023-05-09T13:49:38.537Z,88.69
2023-05-09T13:52:05.754Z,90.11
2023-05-09T13:54:35.416Z,88.76
2023-05-09T13:57:05.342Z,87.70
2023-05-09T13:59:32.284Z,86.44
2023-05-09T14:02:00.168Z,85.40
2023-05-09T14:04:28.111Z,85.83
2023-05-09T14:06:58.203Z,87.36
2023-05-09T14:09:24.727Z,87.89
2023-05-09T14:11:52.633Z,85.78
2023-05-09T14:14:20.692Z,87.42
2023-05-09T14:16:47.436Z,88.26
2023-05-09T14:19:17.774Z,90.16
2023-05-09T14:21:47.198Z,86.02
2023-05-09T14:24:16.159Z,86.50
2023-05-09T14:26:43.060Z,88.96
2023-05-09T14:29:09.585Z,86.42
2023-05-09T14:31:36.063Z,88.03
2023-05-09T14:34:02.744Z,87.38
2023-05-09T14:36:29.161Z,87.74
2023-05-09T14:38:55.606Z,87.36
2023-05-09T14:41:22.266Z,87.43
2023-05-09T14:43:48.958Z,87.07
2023-05-09T14:46:15.554Z,90.59
2023-05-09T14:48:42.049Z,88.82
2023-05-09T14:51:08.687Z,89.38
2023-05-09T14:53:39.725Z,89.50
2023-05-09T14:56:06.890Z,90.98
2023-05-09T14:58:36.290Z,91.02
2023-05-09T15:01:04.202Z,91.83
2023-05-09T15:03:30.702Z,92.95
2023-05-09T15:05:58.621Z,94.23
2023-05-09T15:08:25.486Z,93.71
2023-05-09T15:10:51.920Z,95.50
2023-05-09T15:13:18.455Z,93.86
2023-05-09T15:15:44.952Z,94.60
2023-05-09T15:18:13.235Z,93.03
2023-05-09T15:20:39.809Z,97.25
2023-05-09T15:23:07.671Z,94.46
2023-05-09T15:25:34.553Z,94.83
2023-05-09T15:28:01.204Z,91.67
2023-05-09T15:30:27.853Z,93.60
2023-05-09T15:32:54.325Z,93.03
2023-05-09T15:35:20.843Z,92.29
2023-05-09T15:37:47.699Z,90.98
2023-05-09T15:40:14.482Z,90.44
2023-05-09T15:42:41.147Z,90.47
2023-05-09T15:45:08.160Z,89.81
2023-05-09T15:47:34.623Z,92.29
2023-05-09T15:50:01.136Z,89.74
2023-05-09T15:52:27.845Z,91.50
2023-05-09T15:54:56.003Z,92.69
2023-05-09T15:57:22.997Z,91.59
2023-05-09T15:59:49.446Z,91.91
2023-05-09T16:02:15.910Z,92.97
2023-05-09T16:04:43.890Z,92.10
2023-05-09T16:07:10.335Z,91.46
2023-05-09T16:09:37.362Z,91.48
2023-05-09T16:12:04.434Z,90.59
2023-05-09T16:14:31.171Z,91.86
2023-05-09T16:16:57.665Z,92.92
2023-05-09T16:19:24.142Z,90.98
2023-05-09T16:21:50.752Z,90.22
2023-05-09T16:24:17.411Z,89.79
2023-05-09T16:26:43.881Z,89.56
2023-05-09T16:29:11.141Z,90.73
2023-05-09T16:31:37.739Z,91.34
2023-05-09T16:34:04.324Z,90.12
2023-05-09T16:36:33.604Z,89.29
2023-05-09T16:39:00.096Z,89.94
2023-05-09T16:41:27.050Z,89.20
2023-05-09T16:43:53.715Z,90.03
2023-05-09T16:46:20.214Z,88.54
2023-05-09T16:48:46.732Z,89.92
2023-05-09T16:51:13.205Z,89.60
2023-05-09T16:53:39.653Z,89.19
2023-05-09T16:56:07.409Z,89.75
2023-05-09T16:58:35.477Z,89.34
2023-05-09T17:01:03.693Z,89.10
2023-05-09T17:03:30.211Z,89.22
2023-05-09T17:05:56.631Z,91.06
2023-05-09T17:08:23.415Z,92.55
2023-05-09T17:10:49.820Z,91.08
2023-05-09T17:13:16.331Z,91.47
2023-05-09T17:15:43.169Z,92.13
2023-05-09T17:18:09.700Z,91.39
2023-05-09T17:20:36.241Z,92.28
2023-05-09T17:23:02.727Z,91.99
2023-05-09T17:25:29.187Z,90.99
2023-05-09T17:27:55.612Z,91.15
2023-05-09T17:30:23.193Z,92.06
2023-05-09T17:32:50.193Z,92.15
2023-05-09T17:35:19.308Z,91.66
2023-05-09T17:37:46.139Z,92.69
2023-05-09T17:40:12.878Z,92.61
2023-05-09T17:42:39.376Z,91.56
2023-05-09T17:45:06.431Z,92.20
2023-05-09T17:47:32.968Z,93.32
2023-05-09T17:49:59.495Z,92.63
2023-05-09T17:52:26.005Z,91.33
2023-05-09T17:54:52.506Z,92.84
2023-05-09T17:57:18.927Z,91.53
2023-05-09T17:59:47.858Z,91.16
2023-05-09T18:02:14.589Z,90.79
2023-05-09T18:04:41.060Z,90.84
2023-05-09T18:07:08.296Z,90.65
2023-05-09T18:09:34.769Z,93.51
2023-05-09T18:12:01.228Z,91.89
2023-05-09T18:14:28.412Z,91.96
2023-05-09T18:16:54.872Z,93.87
2023-05-09T18:19:21.258Z,92.03
2023-05-09T18:21:47.696Z,93.83
2023-05-09T18:24:16.818Z,93.20
2023-05-09T18:26:43.462Z,92.32
2023-05-09T18:29:09.878Z,93.90
2023-05-09T18:31:38.812Z,94.13
2023-05-09T18:34:05.938Z,93.75
2023-05-09T18:36:32.594Z,94.29
2023-05-09T18:38:59.392Z,95.14
2023-05-09T18:41:26.369Z,94.77
2023-05-09T18:43:53.115Z,96.28
2023-05-09T18:46:22.215Z,94.60
2023-05-09T18:48:50.999Z,93.77
2023-05-09T18:51:18.965Z,94.94
2023-05-09T18:53:47.209Z,94.14
2023-05-09T18:56:14.317Z,93.69
2023-05-09T18:58:41.470Z,92.97
2023-05-09T19:01:11.358Z,93.66
2023-05-09T19:03:45.664Z,95.54
2023-05-09T19:06:14.394Z,95.49
2023-05-09T19:08:42.176Z,96.79
2023-05-09T19:11:09.826Z,98.28
2023-05-09T19:13:38.352Z,98.37
2023-05-09T19:16:06.692Z,99.78
2023-05-09T19:18:33.704Z,99.43
2023-05-09T19:21:00.425Z,100.00
2023-05-09T19:23:26.996Z,100.00
2023-05-09T19:25:53.993Z,100.00
2023-05-09T19:28:21.239Z,100.00
2023-05-09T19:30:47.689Z,100.00
2023-05-09T19:33:14.153Z,100.00
2023-05-09T19:35:44.185Z,100.00
2023-05-09T19:38:13.897Z,100.00
2023-05-09T19:40:40.955Z,100.00
2023-05-09T19:43:07.437Z,100.00
2023-05-09T19:45:33.886Z,100.00
2023-05-09T19:48:00.671Z,100.00
2023-05-09T19:50:27.203Z,100.00
2023-05-09T19:52:53.688Z,100.00
2023-05-09T19:55:20.308Z,100.00
2023-05-09T19:57:47.297Z,100.00
2023-05-09T20:00:14.384Z,100.00
2023-05-09T20:02:41.181Z,100.00
2023-05-09T20:05:08.109Z,100.00
2023-05-09T20:07:34.552Z,100.00
2023-05-09T20:10:01.044Z,100.00
2023-05-09T20:12:29.909Z,100.00
2023-05-09T20:14:56.752Z,100.00
2023-05-09T20:17:23.235Z,100.00
2023-05-09T20:19:49.696Z,100.00
2023-05-09T20:22:16.152Z,100.00
2023-05-09T20:24:42.712Z,100.00
2023-05-09T20:27:09.107Z,100.00
2023-05-09T20:29:35.518Z,100.00
2023-05-09T20:32:02.130Z,100.00
2023-05-09T20:34:28.617Z,100.00
2023-05-09T20:36:55.171Z,100.00
2023-05-09T20:39:21.791Z,100.00
2023-05-09T20:41:49.523Z,100.00
2023-05-09T20:44:17.644Z,100.00
2023-05-09T20:46:45.847Z,100.00
2023-05-09T20:49:12.915Z,100.00
2023-05-09T20:51:39.382Z,100.00
2023-05-09T20:54:05.970Z,100.00
2023-05-09T20:56:35.245Z,100.00
2023-05-09T20:59:04.308Z,100.00
2023-05-09T21:01:32.484Z,100.00
2023-05-09T21:03:59.364Z,100.00
2023-05-09T21:06:25.859Z,100.00
2023-05-09T21:08:52.412Z,100.00
2023-05-09T21:11:18.838Z,100.00
2023-05-09T21:13:45.297Z,100.00
2023-05-09T21:16:11.736Z,100.00
2023-05-09T21:18:38.156Z,100.00
2023-05-09T21:21:09.900Z,100.00
2023-05-09T21:23:36.362Z,100.00
2023-05-09T21:26:02.791Z,100.00
2023-05-09T21:28:29.880Z,100.00
2023-05-09T21:30:56.416Z,100.00
2023-05-09T21:33:22.927Z,100.00
2023-05-09T21:35:49.388Z,100.00
2023-05-09T21:38:15.835Z,100.00
2023-05-09T21:40:42.229Z,100.00
2023-05-09T21:43:08.715Z,100.00
2023-05-09T21:45:35.177Z,100.00
2023-05-09T21:48:01.738Z,100.00
2023-05-09T21:50:28.284Z,100.00
2023-05-09T21:52:56.200Z,100.00
2023-05-09T21:55:22.915Z,100.00
2023-05-09T21:57:49.378Z,100.00
2023-05-09T22:00:16.911Z,100.00
2023-05-09T22:02:43.804Z,100.00
2023-05-09T22:05:11.145Z,100.00
2023-05-09T22:07:37.582Z,100.00
2023-05-09T22:10:05.225Z,100.00
2023-05-09T22:12:31.869Z,100.00
2023-05-09T22:14:58.348Z,100.00
2023-05-09T22:17:24.954Z,100.00
2023-05-09T22:19:51.938Z,100.00
2023-05-09T22:22:18.427Z,100.00
2023-05-09T22:24:44.920Z,100.00
2023-05-09T22:27:11.517Z,100.00
2023-05-09T22:29:38.156Z,100.00
2023-05-09T22:32:07.730Z,100.00
2023-05-09T22:34:35.492Z,100.00
2023-05-09T22:37:01.920Z,100.00
2023-05-09T22:39:28.398Z,100.00
2023-05-09T22:41:54.803Z,100.00
2023-05-09T22:44:21.279Z,100.00
2023-05-09T22:46:47.848Z,100.00
2023-05-09T22:49:14.252Z,100.00
2023-05-09T22:51:40.662Z,100.00
2023-05-09T22:54:07.108Z,100.00
2023-05-09T22:56:33.644Z,100.00
2023-05-09T22:59:00.177Z,100.00
2023-05-09T23:01:27.542Z,100.00
2023-05-09T23:03:53.969Z,100.00
2023-05-09T23:06:20.559Z,100.00
2023-05-09T23:08:47.070Z,100.00
2023-05-09T23:11:13.501Z,100.00
2023-05-09T23:13:40.063Z,100.00
2023-05-09T23:16:06.533Z,100.00
2023-05-09T23:18:32.944Z,100.00
2023-05-09T23:20:59.372Z,100.00
2023-05-09T23:23:25.832Z,100.00
2023-05-09T23:25:52.251Z,100.00
2023-05-09T23:28:20.352Z,100.00
2023-05-09T23:30:46.878Z,100.00
2023-05-09T23:33:13.367Z,100.00
2023-05-09T23:35:39.812Z,100.00
2023-05-09T23:38:06.384Z,100.00
2023-05-09T23:40:33.937Z,100.00
2023-05-09T23:43:00.652Z,100.00
2023-05-09T23:45:27.626Z,100.00
2023-05-09T23:47:54.174Z,100.00
2023-05-09T23:50:20.846Z,100.00
2023-05-09T23:52:49.296Z,100.00
2023-05-09T23:55:15.730Z,100.00
2023-05-09T23:57:42.224Z,100.00
